sensor_id;sensor_type;location;lat;lon;timestamp;temperature;humidity
15107;DHT22;7654;45.308;-75.096;2023-05-10T00:00:31;15.10;47.10
15107;DHT22;7654;45.308;-75.096;2023-05-10T00:03:01;14.70;48.30
15107;DHT22;7654;45.308;-75.096;2023-05-10T00:05:33;14.40;48.50
15107;DHT22;7654;45.308;-75.096;2023-05-10T00:08:03;14.10;48.20
15107;DHT22;7654;45.308;-75.096;2023-05-10T00:10:34;13.70;50.10
15107;DHT22;7654;45.308;-75.096;2023-05-10T00:13:05;13.40;52.20
15107;DHT22;7654;45.308;-75.096;2023-05-10T00:15:36;13.10;54.40
15107;DHT22;7654;45.308;-75.096;2023-05-10T00:18:07;12.80;56.80
15107;DHT22;7654;45.308;-75.096;2023-05-10T00:20:37;12.40;58.20
15107;DHT22;7654;45.308;-75.096;2023-05-10T00:23:07;12.10;60.20
15107;DHT22;7654;45.308;-75.096;2023-05-10T00:25:38;11.70;61.00
15107;DHT22;7654;45.308;-75.096;2023-05-10T00:28:10;11.50;61.70
15107;DHT22;7654;45.308;-75.096;2023-05-10T00:30:41;11.20;62.30
15107;DHT22;7654;45.308;-75.096;2023-05-10T00:33:11;10.80;63.00
15107;DHT22;7654;45.308;-75.096;2023-05-10T00:35:41;10.50;63.30
15107;DHT22;7654;45.308;-75.096;2023-05-10T00:38:12;10.20;62.40
15107;DHT22;7654;45.308;-75.096;2023-05-10T00:40:42;10.00;61.10
15107;DHT22;7654;45.308;-75.096;2023-05-10T00:43:15;9.70;61.90
15107;DHT22;7654;45.308;-75.096;2023-05-10T00:45:45;9.60;63.10
15107;DHT22;7654;45.308;-75.096;2023-05-10T00:48:15;9.40;64.30
15107;DHT22;7654;45.308;-75.096;2023-05-10T00:50:46;9.20;65.10
15107;DHT22;7654;45.308;-75.096;2023-05-10T00:53:16;9.10;65.10
15107;DHT22;7654;45.308;-75.096;2023-05-10T00:55:47;9.00;65.00
15107;DHT22;7654;45.308;-75.096;2023-05-10T00:58:19;9.00;64.30
15107;DHT22;7654;45.308;-75.096;2023-05-10T01:00:52;8.90;64.70
15107;DHT22;7654;45.308;-75.096;2023-05-10T01:03:23;8.70;65.40
15107;DHT22;7654;45.308;-75.096;2023-05-10T01:05:53;8.60;66.20
15107;DHT22;7654;45.308;-75.096;2023-05-10T01:08:24;8.50;68.50
15107;DHT22;7654;45.308;-75.096;2023-05-10T01:10:54;8.50;69.80
15107;DHT22;7654;45.308;-75.096;2023-05-10T01:13:32;8.40;69.80
15107;DHT22;7654;45.308;-75.096;2023-05-10T01:16:04;8.20;69.00
15107;DHT22;7654;45.308;-75.096;2023-05-10T01:18:37;8.10;70.10
15107;DHT22;7654;45.308;-75.096;2023-05-10T01:21:17;8.00;72.90
15107;DHT22;7654;45.308;-75.096;2023-05-10T01:24:21;7.90;74.90
15107;DHT22;7654;45.308;-75.096;2023-05-10T01:30:42;8.10;82.50
15107;DHT22;7654;45.308;-75.096;2023-05-10T01:33:21;8.30;85.50
15107;DHT22;7654;45.308;-75.096;2023-05-10T01:35:58;8.40;85.80
15107;DHT22;7654;45.308;-75.096;2023-05-10T01:38:36;8.30;87.10
15107;DHT22;7654;45.308;-75.096;2023-05-10T01:41:14;8.10;87.40
15107;DHT22;7654;45.308;-75.096;2023-05-10T01:43:52;8.10;83.30
15107;DHT22;7654;45.308;-75.096;2023-05-10T01:46:28;7.80;83.30
15107;DHT22;7654;45.308;-75.096;2023-05-10T01:49:01;7.70;85.10
15107;DHT22;7654;45.308;-75.096;2023-05-10T01:51:38;7.50;86.40
15107;DHT22;7654;45.308;-75.096;2023-05-10T01:54:09;7.40;88.50
15107;DHT22;7654;45.308;-75.096;2023-05-10T01:56:43;7.30;89.80
15107;DHT22;7654;45.308;-75.096;2023-05-10T01:59:16;7.30;88.70
15107;DHT22;7654;45.308;-75.096;2023-05-10T02:01:49;7.40;87.10
15107;DHT22;7654;45.308;-75.096;2023-05-10T02:04:22;7.30;87.20
15107;DHT22;7654;45.308;-75.096;2023-05-10T02:06:54;7.30;90.70
15107;DHT22;7654;45.308;-75.096;2023-05-10T02:09:26;7.20;90.70
15107;DHT22;7654;45.308;-75.096;2023-05-10T02:11:59;7.10;90.80
15107;DHT22;7654;45.308;-75.096;2023-05-10T02:14:32;6.90;91.30
15107;DHT22;7654;45.308;-75.096;2023-05-10T02:17:05;6.80;92.70
15107;DHT22;7654;45.308;-75.096;2023-05-10T02:19:40;6.60;95.10
15107;DHT22;7654;45.308;-75.096;2023-05-10T02:22:12;6.50;98.10
15107;DHT22;7654;45.308;-75.096;2023-05-10T02:24:44;6.40;99.90
15107;DHT22;7654;45.308;-75.096;2023-05-10T02:27:16;6.40;99.90
15107;DHT22;7654;45.308;-75.096;2023-05-10T02:29:48;6.40;99.90
15107;DHT22;7654;45.308;-75.096;2023-05-10T02:32:20;6.30;99.90
15107;DHT22;7654;45.308;-75.096;2023-05-10T02:34:53;6.50;99.90
15107;DHT22;7654;45.308;-75.096;2023-05-10T02:37:25;6.60;99.90
15107;DHT22;7654;45.308;-75.096;2023-05-10T02:39:57;6.50;99.90
15107;DHT22;7654;45.308;-75.096;2023-05-10T02:42:28;6.40;99.90
15107;DHT22;7654;45.308;-75.096;2023-05-10T02:45:01;6.20;99.90
15107;DHT22;7654;45.308;-75.096;2023-05-10T02:47:32;6.00;99.90
15107;DHT22;7654;45.308;-75.096;2023-05-10T02:50:06;5.80;99.90
15107;DHT22;7654;45.308;-75.096;2023-05-10T02:52:40;5.70;99.90
15107;DHT22;7654;45.308;-75.096;2023-05-10T02:55:13;5.60;99.90
15107;DHT22;7654;45.308;-75.096;2023-05-10T02:57:51;5.50;99.90
15107;DHT22;7654;45.308;-75.096;2023-05-10T03:00:21;5.40;99.90
15107;DHT22;7654;45.308;-75.096;2023-05-10T03:02:53;5.20;99.90
15107;DHT22;7654;45.308;-75.096;2023-05-10T03:05:25;5.10;99.90
15107;DHT22;7654;45.308;-75.096;2023-05-10T03:07:56;5.10;99.90
15107;DHT22;7654;45.308;-75.096;2023-05-10T03:10:28;5.00;99.90
15107;DHT22;7654;45.308;-75.096;2023-05-10T03:13:10;4.90;99.90
15107;DHT22;7654;45.308;-75.096;2023-05-10T03:15:47;4.80;99.90
15107;DHT22;7654;45.308;-75.096;2023-05-10T03:18:26;4.70;99.90
15107;DHT22;7654;45.308;-75.096;2023-05-10T03:21:02;4.70;99.90
15107;DHT22;7654;45.308;-75.096;2023-05-10T03:23:38;4.80;99.90
15107;DHT22;7654;45.308;-75.096;2023-05-10T03:26:11;4.80;99.90
15107;DHT22;7654;45.308;-75.096;2023-05-10T03:28:46;4.80;99.90
15107;DHT22;7654;45.308;-75.096;2023-05-10T03:31:18;5.10;99.90
15107;DHT22;7654;45.308;-75.096;2023-05-10T03:33:48;5.20;99.90
15107;DHT22;7654;45.308;-75.096;2023-05-10T03:36:21;5.20;99.90
15107;DHT22;7654;45.308;-75.096;2023-05-10T03:38:51;5.10;99.90
15107;DHT22;7654;45.308;-75.096;2023-05-10T03:41:21;5.10;99.90
15107;DHT22;7654;45.308;-75.096;2023-05-10T03:43:53;5.20;99.90
15107;DHT22;7654;45.308;-75.096;2023-05-10T03:46:23;5.20;99.90
15107;DHT22;7654;45.308;-75.096;2023-05-10T03:48:53;5.30;99.90
15107;DHT22;7654;45.308;-75.096;2023-05-10T03:51:25;5.30;99.90
15107;DHT22;7654;45.308;-75.096;2023-05-10T03:53:56;5.10;99.90
15107;DHT22;7654;45.308;-75.096;2023-05-10T03:56:26;5.00;99.90
15107;DHT22;7654;45.308;-75.096;2023-05-10T03:58:57;4.80;99.90
15107;DHT22;7654;45.308;-75.096;2023-05-10T04:01:27;4.70;99.90
15107;DHT22;7654;45.308;-75.096;2023-05-10T04:03:57;4.70;99.90
15107;DHT22;7654;45.308;-75.096;2023-05-10T04:06:29;4.60;99.90
15107;DHT22;7654;45.308;-75.096;2023-05-10T04:09:00;4.50;99.90
15107;DHT22;7654;45.308;-75.096;2023-05-10T04:11:32;4.30;99.90
15107;DHT22;7654;45.308;-75.096;2023-05-10T04:14:02;4.20;99.90
15107;DHT22;7654;45.308;-75.096;2023-05-10T04:16:32;4.10;99.90
15107;DHT22;7654;45.308;-75.096;2023-05-10T04:19:03;4.10;99.90
15107;DHT22;7654;45.308;-75.096;2023-05-10T04:21:35;4.10;99.90
15107;DHT22;7654;45.308;-75.096;2023-05-10T04:24:06;4.10;99.90
15107;DHT22;7654;45.308;-75.096;2023-05-10T04:26:36;4.10;99.90
15107;DHT22;7654;45.308;-75.096;2023-05-10T04:29:06;4.10;99.90
15107;DHT22;7654;45.308;-75.096;2023-05-10T04:31:37;4.10;99.90
15107;DHT22;7654;45.308;-75.096;2023-05-10T04:34:07;4.00;99.90
15107;DHT22;7654;45.308;-75.096;2023-05-10T04:36:39;4.00;99.90
15107;DHT22;7654;45.308;-75.096;2023-05-10T04:39:09;3.90;99.90
15107;DHT22;7654;45.308;-75.096;2023-05-10T04:41:39;3.80;99.90
15107;DHT22;7654;45.308;-75.096;2023-05-10T04:44:09;3.80;99.90
15107;DHT22;7654;45.308;-75.096;2023-05-10T04:46:39;3.70;99.90
15107;DHT22;7654;45.308;-75.096;2023-05-10T04:49:10;3.60;99.90
15107;DHT22;7654;45.308;-75.096;2023-05-10T04:51:42;3.50;99.90
15107;DHT22;7654;45.308;-75.096;2023-05-10T04:54:13;3.50;99.90
15107;DHT22;7654;45.308;-75.096;2023-05-10T04:56:43;3.50;99.90
15107;DHT22;7654;45.308;-75.096;2023-05-10T04:59:14;3.40;99.90
15107;DHT22;7654;45.308;-75.096;2023-05-10T05:01:44;3.40;99.90
15107;DHT22;7654;45.308;-75.096;2023-05-10T05:04:14;3.40;99.90
15107;DHT22;7654;45.308;-75.096;2023-05-10T05:06:47;3.40;99.90
15107;DHT22;7654;45.308;-75.096;2023-05-10T05:09:20;3.40;99.90
15107;DHT22;7654;45.308;-75.096;2023-05-10T05:11:50;3.40;99.90
15107;DHT22;7654;45.308;-75.096;2023-05-10T05:14:21;3.50;99.90
15107;DHT22;7654;45.308;-75.096;2023-05-10T05:16:53;3.60;99.90
15107;DHT22;7654;45.308;-75.096;2023-05-10T05:19:24;3.50;99.90
15107;DHT22;7654;45.308;-75.096;2023-05-10T05:21:55;3.60;99.90
15107;DHT22;7654;45.308;-75.096;2023-05-10T05:24:26;3.60;99.90
15107;DHT22;7654;45.308;-75.096;2023-05-10T05:26:56;3.40;99.90
15107;DHT22;7654;45.308;-75.096;2023-05-10T05:29:26;3.30;99.90
15107;DHT22;7654;45.308;-75.096;2023-05-10T05:31:56;3.20;99.90
15107;DHT22;7654;45.308;-75.096;2023-05-10T05:34:27;3.20;99.90
15107;DHT22;7654;45.308;-75.096;2023-05-10T05:36:59;3.20;99.90
15107;DHT22;7654;45.308;-75.096;2023-05-10T05:39:29;3.20;99.90
15107;DHT22;7654;45.308;-75.096;2023-05-10T05:41:59;3.40;99.90
15107;DHT22;7654;45.308;-75.096;2023-05-10T05:44:29;3.40;99.90
15107;DHT22;7654;45.308;-75.096;2023-05-10T05:47:00;3.50;99.90
15107;DHT22;7654;45.308;-75.096;2023-05-10T05:49:31;3.40;99.90
15107;DHT22;7654;45.308;-75.096;2023-05-10T05:52:03;3.40;99.90
15107;DHT22;7654;45.308;-75.096;2023-05-10T05:54:34;3.40;99.90
15107;DHT22;7654;45.308;-75.096;2023-05-10T05:57:04;3.50;99.90
15107;DHT22;7654;45.308;-75.096;2023-05-10T05:59:34;3.50;99.90
15107;DHT22;7654;45.308;-75.096;2023-05-10T06:02:04;3.60;99.90
15107;DHT22;7654;45.308;-75.096;2023-05-10T06:04:34;3.80;99.90
15107;DHT22;7654;45.308;-75.096;2023-05-10T06:07:07;3.90;99.90
15107;DHT22;7654;45.308;-75.096;2023-05-10T06:09:37;4.10;99.90
15107;DHT22;7654;45.308;-75.096;2023-05-10T06:12:08;4.20;99.90
15107;DHT22;7654;45.308;-75.096;2023-05-10T06:14:38;4.20;99.90
15107;DHT22;7654;45.308;-75.096;2023-05-10T06:17:08;4.10;99.90
15107;DHT22;7654;45.308;-75.096;2023-05-10T06:19:38;3.90;99.90
15107;DHT22;7654;45.308;-75.096;2023-05-10T06:22:10;3.70;99.90
15107;DHT22;7654;45.308;-75.096;2023-05-10T06:24:41;3.50;99.90
15107;DHT22;7654;45.308;-75.096;2023-05-10T06:27:11;3.40;99.90
15107;DHT22;7654;45.308;-75.096;2023-05-10T06:29:42;3.40;99.90
15107;DHT22;7654;45.308;-75.096;2023-05-10T06:32:12;3.30;99.90
15107;DHT22;7654;45.308;-75.096;2023-05-10T06:34:42;3.20;99.90
15107;DHT22;7654;45.308;-75.096;2023-05-10T06:37:14;3.20;99.90
15107;DHT22;7654;45.308;-75.096;2023-05-10T06:39:44;3.30;99.90
15107;DHT22;7654;45.308;-75.096;2023-05-10T06:42:15;3.40;99.90
15107;DHT22;7654;45.308;-75.096;2023-05-10T06:44:45;3.40;99.90
15107;DHT22;7654;45.308;-75.096;2023-05-10T06:47:15;3.40;99.90
15107;DHT22;7654;45.308;-75.096;2023-05-10T06:49:45;3.40;99.90
15107;DHT22;7654;45.308;-75.096;2023-05-10T06:52:17;3.30;99.90
15107;DHT22;7654;45.308;-75.096;2023-05-10T06:54:47;3.30;99.90
15107;DHT22;7654;45.308;-75.096;2023-05-10T06:57:18;3.50;99.90
15107;DHT22;7654;45.308;-75.096;2023-05-10T06:59:58;3.60;99.90
15107;DHT22;7654;45.308;-75.096;2023-05-10T07:02:28;3.70;99.90
15107;DHT22;7654;45.308;-75.096;2023-05-10T07:04:59;3.70;99.90
15107;DHT22;7654;45.308;-75.096;2023-05-10T07:07:31;3.60;99.90
15107;DHT22;7654;45.308;-75.096;2023-05-10T07:10:02;3.60;99.90
15107;DHT22;7654;45.308;-75.096;2023-05-10T07:12:32;3.40;99.90
15107;DHT22;7654;45.308;-75.096;2023-05-10T07:15:02;3.40;99.90
15107;DHT22;7654;45.308;-75.096;2023-05-10T07:17:33;3.40;99.90
15107;DHT22;7654;45.308;-75.096;2023-05-10T07:20:04;3.30;99.90
15107;DHT22;7654;45.308;-75.096;2023-05-10T07:22:36;3.20;99.90
15107;DHT22;7654;45.308;-75.096;2023-05-10T07:25:07;3.10;99.90
15107;DHT22;7654;45.308;-75.096;2023-05-10T07:27:37;3.00;99.90
15107;DHT22;7654;45.308;-75.096;2023-05-10T07:30:09;2.80;99.90
15107;DHT22;7654;45.308;-75.096;2023-05-10T07:32:39;2.70;99.90
15107;DHT22;7654;45.308;-75.096;2023-05-10T07:35:10;2.60;99.90
15107;DHT22;7654;45.308;-75.096;2023-05-10T07:37:42;2.50;99.90
15107;DHT22;7654;45.308;-75.096;2023-05-10T07:40:12;2.50;99.90
15107;DHT22;7654;45.308;-75.096;2023-05-10T07:42:42;2.50;99.90
15107;DHT22;7654;45.308;-75.096;2023-05-10T07:45:12;2.50;99.90
15107;DHT22;7654;45.308;-75.096;2023-05-10T07:47:43;2.50;99.90
15107;DHT22;7654;45.308;-75.096;2023-05-10T07:50:14;2.70;99.90
15107;DHT22;7654;45.308;-75.096;2023-05-10T07:52:45;2.90;99.90
15107;DHT22;7654;45.308;-75.096;2023-05-10T07:55:16;3.10;99.90
15107;DHT22;7654;45.308;-75.096;2023-05-10T07:57:48;3.10;99.90
15107;DHT22;7654;45.308;-75.096;2023-05-10T08:00:19;3.20;99.90
15107;DHT22;7654;45.308;-75.096;2023-05-10T08:02:49;3.20;99.90
15107;DHT22;7654;45.308;-75.096;2023-05-10T08:05:19;3.20;99.90
15107;DHT22;7654;45.308;-75.096;2023-05-10T08:07:51;3.20;99.90
15107;DHT22;7654;45.308;-75.096;2023-05-10T08:10:21;3.30;99.90
15107;DHT22;7654;45.308;-75.096;2023-05-10T08:12:52;3.40;99.90
15107;DHT22;7654;45.308;-75.096;2023-05-10T08:15:22;3.40;99.90
15107;DHT22;7654;45.308;-75.096;2023-05-10T08:17:52;3.40;99.90
15107;DHT22;7654;45.308;-75.096;2023-05-10T08:20:23;3.40;99.90
15107;DHT22;7654;45.308;-75.096;2023-05-10T08:22:55;3.40;99.90
15107;DHT22;7654;45.308;-75.096;2023-05-10T08:25:26;3.40;99.90
15107;DHT22;7654;45.308;-75.096;2023-05-10T08:27:56;3.40;99.90
15107;DHT22;7654;45.308;-75.096;2023-05-10T08:30:26;3.30;99.90
15107;DHT22;7654;45.308;-75.096;2023-05-10T08:32:56;3.30;99.90
15107;DHT22;7654;45.308;-75.096;2023-05-10T08:35:26;3.20;99.90
15107;DHT22;7654;45.308;-75.096;2023-05-10T08:37:59;3.20;99.90
15107;DHT22;7654;45.308;-75.096;2023-05-10T08:40:29;3.00;99.90
15107;DHT22;7654;45.308;-75.096;2023-05-10T08:43:04;2.90;99.90
15107;DHT22;7654;45.308;-75.096;2023-05-10T08:45:38;2.80;99.90
15107;DHT22;7654;45.308;-75.096;2023-05-10T08:48:10;2.60;99.90
15107;DHT22;7654;45.308;-75.096;2023-05-10T08:50:41;2.50;99.90
15107;DHT22;7654;45.308;-75.096;2023-05-10T08:53:15;2.40;99.90
15107;DHT22;7654;45.308;-75.096;2023-05-10T08:55:46;2.40;99.90
15107;DHT22;7654;45.308;-75.096;2023-05-10T08:58:16;2.30;99.90
15107;DHT22;7654;45.308;-75.096;2023-05-10T09:00:49;2.30;99.90
15107;DHT22;7654;45.308;-75.096;2023-05-10T09:03:20;2.30;99.90
15107;DHT22;7654;45.308;-75.096;2023-05-10T09:05:51;2.30;99.90
15107;DHT22;7654;45.308;-75.096;2023-05-10T09:08:24;2.30;99.90
15107;DHT22;7654;45.308;-75.096;2023-05-10T09:10:55;2.40;99.90
15107;DHT22;7654;45.308;-75.096;2023-05-10T09:13:25;2.50;99.90
15107;DHT22;7654;45.308;-75.096;2023-05-10T09:15:55;2.70;99.90
15107;DHT22;7654;45.308;-75.096;2023-05-10T09:18:36;2.80;99.90
15107;DHT22;7654;45.308;-75.096;2023-05-10T09:21:06;3.00;99.90
15107;DHT22;7654;45.308;-75.096;2023-05-10T09:23:43;3.10;99.90
15107;DHT22;7654;45.308;-75.096;2023-05-10T09:26:15;3.10;99.90
15107;DHT22;7654;45.308;-75.096;2023-05-10T09:28:52;3.20;99.90
15107;DHT22;7654;45.308;-75.096;2023-05-10T09:31:23;3.20;99.90
15107;DHT22;7654;45.308;-75.096;2023-05-10T09:33:54;3.00;99.90
15107;DHT22;7654;45.308;-75.096;2023-05-10T09:36:25;3.00;99.90
15107;DHT22;7654;45.308;-75.096;2023-05-10T09:38:57;2.90;99.90
15107;DHT22;7654;45.308;-75.096;2023-05-10T09:41:27;2.90;99.90
15107;DHT22;7654;45.308;-75.096;2023-05-10T09:43:58;2.90;99.90
15107;DHT22;7654;45.308;-75.096;2023-05-10T09:46:28;2.90;99.90
15107;DHT22;7654;45.308;-75.096;2023-05-10T09:48:58;3.00;99.90
15107;DHT22;7654;45.308;-75.096;2023-05-10T09:51:29;2.90;99.90
15107;DHT22;7654;45.308;-75.096;2023-05-10T09:54:14;2.90;99.90
15107;DHT22;7654;45.308;-75.096;2023-05-10T09:56:44;2.90;99.90
15107;DHT22;7654;45.308;-75.096;2023-05-10T09:59:14;2.90;99.90
15107;DHT22;7654;45.308;-75.096;2023-05-10T10:01:49;2.90;99.90
15107;DHT22;7654;45.308;-75.096;2023-05-10T10:04:20;2.90;99.90
15107;DHT22;7654;45.308;-75.096;2023-05-10T10:07:01;2.90;99.90
15107;DHT22;7654;45.308;-75.096;2023-05-10T10:09:34;2.80;99.90
15107;DHT22;7654;45.308;-75.096;2023-05-10T10:12:05;2.80;99.90
15107;DHT22;7654;45.308;-75.096;2023-05-10T10:14:35;2.90;99.90
15107;DHT22;7654;45.308;-75.096;2023-05-10T10:17:05;3.10;99.90
15107;DHT22;7654;45.308;-75.096;2023-05-10T10:19:36;3.20;99.90
15107;DHT22;7654;45.308;-75.096;2023-05-10T10:22:06;3.30;99.90
15107;DHT22;7654;45.308;-75.096;2023-05-10T10:24:41;3.40;99.90
15107;DHT22;7654;45.308;-75.096;2023-05-10T10:27:22;3.40;99.90
15107;DHT22;7654;45.308;-75.096;2023-05-10T10:30:02;3.50;99.90
15107;DHT22;7654;45.308;-75.096;2023-05-10T10:32:42;3.60;99.90
15107;DHT22;7654;45.308;-75.096;2023-05-10T10:35:16;3.60;99.90
15107;DHT22;7654;45.308;-75.096;2023-05-10T10:37:47;3.80;99.90
15107;DHT22;7654;45.308;-75.096;2023-05-10T10:40:26;3.80;99.90
15107;DHT22;7654;45.308;-75.096;2023-05-10T10:43:21;3.80;99.90
15107;DHT22;7654;45.308;-75.096;2023-05-10T10:46:16;3.90;99.90
15107;DHT22;7654;45.308;-75.096;2023-05-10T10:51:38;4.10;99.90
15107;DHT22;7654;45.308;-75.096;2023-05-10T10:54:12;4.30;99.90
15107;DHT22;7654;45.308;-75.096;2023-05-10T10:56:44;4.30;99.90
15107;DHT22;7654;45.308;-75.096;2023-05-10T10:59:35;4.40;99.90
15107;DHT22;7654;45.308;-75.096;2023-05-10T11:02:07;4.50;99.90
15107;DHT22;7654;45.308;-75.096;2023-05-10T11:04:44;4.60;99.90
15107;DHT22;7654;45.308;-75.096;2023-05-10T11:07:17;4.80;99.90
15107;DHT22;7654;45.308;-75.096;2023-05-10T11:09:48;4.90;99.90
15107;DHT22;7654;45.308;-75.096;2023-05-10T11:12:20;5.10;99.90
15107;DHT22;7654;45.308;-75.096;2023-05-10T11:14:51;5.30;99.90
15107;DHT22;7654;45.308;-75.096;2023-05-10T11:17:25;5.40;99.90
15107;DHT22;7654;45.308;-75.096;2023-05-10T11:20:07;5.50;99.90
15107;DHT22;7654;45.308;-75.096;2023-05-10T11:22:50;5.70;99.90
15107;DHT22;7654;45.308;-75.096;2023-05-10T11:25:26;5.80;99.90
15107;DHT22;7654;45.308;-75.096;2023-05-10T11:27:58;6.00;99.90
15107;DHT22;7654;45.308;-75.096;2023-05-10T11:30:32;6.10;99.90
15107;DHT22;7654;45.308;-75.096;2023-05-10T11:33:03;6.30;99.90
15107;DHT22;7654;45.308;-75.096;2023-05-10T11:35:37;6.40;99.90
15107;DHT22;7654;45.308;-75.096;2023-05-10T11:38:10;6.60;99.90
15107;DHT22;7654;45.308;-75.096;2023-05-10T11:40:41;6.80;99.90
15107;DHT22;7654;45.308;-75.096;2023-05-10T11:43:13;6.90;99.90
15107;DHT22;7654;45.308;-75.096;2023-05-10T11:45:45;7.20;99.90
15107;DHT22;7654;45.308;-75.096;2023-05-10T11:48:16;7.20;99.90
15107;DHT22;7654;45.308;-75.096;2023-05-10T11:50:50;7.20;99.90
15107;DHT22;7654;45.308;-75.096;2023-05-10T11:53:21;7.30;99.90
15107;DHT22;7654;45.308;-75.096;2023-05-10T11:55:52;7.40;99.90
15107;DHT22;7654;45.308;-75.096;2023-05-10T11:58:24;7.40;99.90
15107;DHT22;7654;45.308;-75.096;2023-05-10T12:00:54;7.60;99.90
15107;DHT22;7654;45.308;-75.096;2023-05-10T12:03:25;7.70;99.90
15107;DHT22;7654;45.308;-75.096;2023-05-10T12:05:56;7.80;99.90
15107;DHT22;7654;45.308;-75.096;2023-05-10T12:08:28;7.90;99.90
15107;DHT22;7654;45.308;-75.096;2023-05-10T12:11:06;8.00;99.90
15107;DHT22;7654;45.308;-75.096;2023-05-10T12:13:41;8.20;99.90
15107;DHT22;7654;45.308;-75.096;2023-05-10T12:16:15;8.30;99.90
15107;DHT22;7654;45.308;-75.096;2023-05-10T12:18:48;8.50;99.90
15107;DHT22;7654;45.308;-75.096;2023-05-10T12:21:20;8.60;99.90
15107;DHT22;7654;45.308;-75.096;2023-05-10T12:23:52;8.70;99.90
15107;DHT22;7654;45.308;-75.096;2023-05-10T12:26:23;8.80;99.90
15107;DHT22;7654;45.308;-75.096;2023-05-10T12:29:11;9.00;99.90
15107;DHT22;7654;45.308;-75.096;2023-05-10T12:31:54;9.20;99.90
15107;DHT22;7654;45.308;-75.096;2023-05-10T12:34:26;9.40;99.90
15107;DHT22;7654;45.308;-75.096;2023-05-10T12:36:56;9.60;99.90
15107;DHT22;7654;45.308;-75.096;2023-05-10T12:39:37;9.80;99.90
15107;DHT22;7654;45.308;-75.096;2023-05-10T12:42:08;9.90;99.90
15107;DHT22;7654;45.308;-75.096;2023-05-10T12:44:40;10.00;99.90
15107;DHT22;7654;45.308;-75.096;2023-05-10T12:47:11;10.20;99.90
15107;DHT22;7654;45.308;-75.096;2023-05-10T12:49:41;10.30;99.90
15107;DHT22;7654;45.308;-75.096;2023-05-10T12:52:11;10.40;99.90
15107;DHT22;7654;45.308;-75.096;2023-05-10T12:54:42;10.50;99.90
15107;DHT22;7654;45.308;-75.096;2023-05-10T12:57:13;10.70;99.90
15107;DHT22;7654;45.308;-75.096;2023-05-10T12:59:45;10.80;99.90
15107;DHT22;7654;45.308;-75.096;2023-05-10T13:02:15;10.90;99.90
15107;DHT22;7654;45.308;-75.096;2023-05-10T13:04:47;11.10;99.90
15107;DHT22;7654;45.308;-75.096;2023-05-10T13:07:18;11.20;99.90
15107;DHT22;7654;45.308;-75.096;2023-05-10T13:09:48;11.30;99.90
15107;DHT22;7654;45.308;-75.096;2023-05-10T13:12:18;11.50;99.90
15107;DHT22;7654;45.308;-75.096;2023-05-10T13:14:50;11.70;99.90
15107;DHT22;7654;45.308;-75.096;2023-05-10T13:17:21;11.80;99.90
15107;DHT22;7654;45.308;-75.096;2023-05-10T13:19:52;12.00;99.90
15107;DHT22;7654;45.308;-75.096;2023-05-10T13:22:22;12.10;99.90
15107;DHT22;7654;45.308;-75.096;2023-05-10T13:25:07;12.30;99.90
15107;DHT22;7654;45.308;-75.096;2023-05-10T13:27:39;12.40;99.90
15107;DHT22;7654;45.308;-75.096;2023-05-10T13:30:11;12.60;99.90
15107;DHT22;7654;45.308;-75.096;2023-05-10T13:32:42;12.80;99.90
15107;DHT22;7654;45.308;-75.096;2023-05-10T13:35:12;12.90;99.90
15107;DHT22;7654;45.308;-75.096;2023-05-10T13:37:42;13.10;99.90
15107;DHT22;7654;45.308;-75.096;2023-05-10T13:40:13;13.20;99.90
15107;DHT22;7654;45.308;-75.096;2023-05-10T13:42:43;13.40;99.90
15107;DHT22;7654;45.308;-75.096;2023-05-10T13:45:15;13.50;99.90
15107;DHT22;7654;45.308;-75.096;2023-05-10T13:47:46;13.70;99.90
15107;DHT22;7654;45.308;-75.096;2023-05-10T13:50:17;13.80;99.90
15107;DHT22;7654;45.308;-75.096;2023-05-10T13:52:47;14.00;99.90
15107;DHT22;7654;45.308;-75.096;2023-05-10T13:55:20;14.20;99.90
15107;DHT22;7654;45.308;-75.096;2023-05-10T13:57:50;14.50;99.90
15107;DHT22;7654;45.308;-75.096;2023-05-10T14:00:22;14.70;99.90
15107;DHT22;7654;45.308;-75.096;2023-05-10T14:02:52;14.80;99.90
15107;DHT22;7654;45.308;-75.096;2023-05-10T14:05:23;15.00;99.90
15107;DHT22;7654;45.308;-75.096;2023-05-10T14:07:53;15.20;99.90
15107;DHT22;7654;45.308;-75.096;2023-05-10T14:10:23;15.40;99.90
15107;DHT22;7654;45.308;-75.096;2023-05-10T14:12:53;15.70;99.90
15107;DHT22;7654;45.308;-75.096;2023-05-10T14:15:25;15.80;99.90
15107;DHT22;7654;45.308;-75.096;2023-05-10T14:17:56;15.90;99.30
15107;DHT22;7654;45.308;-75.096;2023-05-10T14:20:26;16.10;99.60
15107;DHT22;7654;45.308;-75.096;2023-05-10T14:22:57;16.20;98.10
15107;DHT22;7654;45.308;-75.096;2023-05-10T14:25:27;16.40;99.90
15107;DHT22;7654;45.308;-75.096;2023-05-10T14:27:57;16.60;97.10
15107;DHT22;7654;45.308;-75.096;2023-05-10T14:30:29;16.80;96.20
15107;DHT22;7654;45.308;-75.096;2023-05-10T14:32:59;16.90;94.40
15107;DHT22;7654;45.308;-75.096;2023-05-10T14:35:30;17.20;94.00
15107;DHT22;7654;45.308;-75.096;2023-05-10T14:38:01;17.40;91.00
15107;DHT22;7654;45.308;-75.096;2023-05-10T14:40:32;17.60;88.90
15107;DHT22;7654;45.308;-75.096;2023-05-10T14:43:02;17.80;84.70
15107;DHT22;7654;45.308;-75.096;2023-05-10T14:45:34;18.00;85.90
15107;DHT22;7654;45.308;-75.096;2023-05-10T14:48:04;18.20;84.50
15107;DHT22;7654;45.308;-75.096;2023-05-10T14:50:39;18.40;82.40
15107;DHT22;7654;45.308;-75.096;2023-05-10T14:53:09;18.40;79.30
15107;DHT22;7654;45.308;-75.096;2023-05-10T14:55:40;18.60;81.70
15107;DHT22;7654;45.308;-75.096;2023-05-10T14:58:10;18.70;83.30
15107;DHT22;7654;45.308;-75.096;2023-05-10T15:00:42;18.80;82.80
15107;DHT22;7654;45.308;-75.096;2023-05-10T15:03:13;18.80;83.20
15107;DHT22;7654;45.308;-75.096;2023-05-10T15:05:44;18.90;78.80
15107;DHT22;7654;45.308;-75.096;2023-05-10T15:08:14;18.90;76.30
15107;DHT22;7654;45.308;-75.096;2023-05-10T15:10:44;19.00;82.50
15107;DHT22;7654;45.308;-75.096;2023-05-10T15:13:14;19.10;79.50
15107;DHT22;7654;45.308;-75.096;2023-05-10T15:15:46;19.20;79.00
15107;DHT22;7654;45.308;-75.096;2023-05-10T15:18:16;19.20;78.90
15107;DHT22;7654;45.308;-75.096;2023-05-10T15:20:46;19.30;76.00
15107;DHT22;7654;45.308;-75.096;2023-05-10T15:23:17;19.20;75.00
15107;DHT22;7654;45.308;-75.096;2023-05-10T15:25:47;19.40;79.30
15107;DHT22;7654;45.308;-75.096;2023-05-10T15:28:20;19.40;75.30
15107;DHT22;7654;45.308;-75.096;2023-05-10T15:30:52;19.40;74.60
15107;DHT22;7654;45.308;-75.096;2023-05-10T15:33:23;19.40;72.70
15107;DHT22;7654;45.308;-75.096;2023-05-10T15:35:55;19.50;75.50
15107;DHT22;7654;45.308;-75.096;2023-05-10T15:38:26;19.60;73.20
15107;DHT22;7654;45.308;-75.096;2023-05-10T15:40:57;19.80;74.30
15107;DHT22;7654;45.308;-75.096;2023-05-10T15:43:27;19.80;71.70
15107;DHT22;7654;45.308;-75.096;2023-05-10T15:45:59;20.00;75.70
15107;DHT22;7654;45.308;-75.096;2023-05-10T15:48:29;20.10;73.50
15107;DHT22;7654;45.308;-75.096;2023-05-10T15:50:59;20.30;72.40
15107;DHT22;7654;45.308;-75.096;2023-05-10T15:53:29;20.30;72.20
15107;DHT22;7654;45.308;-75.096;2023-05-10T15:55:59;20.40;70.60
15107;DHT22;7654;45.308;-75.096;2023-05-10T15:58:30;20.40;70.10
15107;DHT22;7654;45.308;-75.096;2023-05-10T16:01:01;20.70;72.80
15107;DHT22;7654;45.308;-75.096;2023-05-10T16:03:33;20.90;70.10